createdAt,value
2023-05-19T00:00:33.324Z,1.93
2023-05-19T00:05:40.948Z,5.73
2023-05-19T00:10:44.614Z,3.30
2023-05-19T00:15:47.334Z,1.60
2023-05-19T00:20:50.034Z,4.47
2023-05-19T00:25:54.083Z,2.40
2023-05-19T00:30:56.650Z,2.10
2023-05-19T00:35:59.247Z,3.17
2023-05-19T00:41:03.182Z,3.20
2023-05-19T00:46:07.270Z,5.27
2023-05-19T00:51:10.369Z,1.13
2023-05-19T00:56:12.731Z,1.77
2023-05-19T01:01:17.214Z,1.73
2023-05-19T01:06:20.903Z,4.50
2023-05-19T01:11:24.871Z,4.23
2023-05-19T01:16:32.214Z,1.90
2023-05-19T01:21:58.872Z,3.10
2023-05-19T01:27:41.855Z,6.13
2023-05-19T01:32:46.853Z,2.13
2023-05-19T01:37:52.260Z,2.90
2023-05-19T01:42:57.755Z,2.23
2023-05-19T01:48:04.311Z,7.47
2023-05-19T01:53:07.020Z,1.93
2023-05-19T01:58:31.676Z,1.93
2023-05-19T02:04:00.815Z,5.00
2023-05-19T02:09:12.054Z,1.37
2023-05-19T02:14:21.288Z,2.73
2023-05-19T02:19:31.039Z,4.80
2023-05-19T02:24:33.449Z,3.80
2023-05-19T02:29:35.837Z,4.33
2023-05-19T02:34:38.285Z,2.43
2023-05-19T02:39:41.736Z,3.80
2023-05-19T02:44:44.298Z,4.30
2023-05-19T02:49:47.780Z,1.40
2023-05-19T02:54:51.471Z,1.73
2023-05-19T02:59:53.839Z,1.60
2023-05-19T03:04:56.392Z,3.20
2023-05-19T03:09:58.820Z,4.60
2023-05-19T03:15:01.859Z,7.07
2023-05-19T03:20:05.490Z,3.83
2023-05-19T03:25:08.224Z,2.47
2023-05-19T03:30:11.538Z,6.80
2023-05-19T03:35:27.877Z,3.47
2023-05-19T03:40:30.869Z,3.67
2023-05-19T03:45:39.884Z,3.37
2023-05-19T03:51:02.163Z,3.60
2023-05-19T03:56:05.443Z,3.07
2023-05-19T04:01:10.827Z,3.20
2023-05-19T04:06:13.340Z,3.27
2023-05-19T04:11:15.798Z,3.93
2023-05-19T04:16:18.282Z,3.43
2023-05-19T04:21:22.426Z,4.80
2023-05-19T04:26:26.458Z,2.57
2023-05-19T04:31:29.920Z,5.07
2023-05-19T04:36:34.129Z,3.70
2023-05-19T04:41:40.452Z,4.60
2023-05-19T04:46:45.327Z,2.37
2023-05-19T04:51:50.412Z,2.03
2023-05-19T04:56:56.733Z,3.70
2023-05-19T05:02:02.264Z,2.20
2023-05-19T05:07:06.519Z,4.10
2023-05-19T05:12:10.414Z,3.10
2023-05-19T05:17:16.524Z,3.27
2023-05-19T05:22:19.492Z,2.33
2023-05-19T05:27:21.920Z,4.40
2023-05-19T05:32:25.327Z,5.43
2023-05-19T05:37:28.256Z,6.07
2023-05-19T05:42:31.310Z,10.37
2023-05-19T05:47:34.471Z,3.77
2023-05-19T05:52:38.252Z,4.97
2023-05-19T05:57:43.959Z,4.10
2023-05-19T06:02:49.404Z,5.93
2023-05-19T06:07:53.322Z,5.27
2023-05-19T06:13:01.496Z,3.97
2023-05-19T06:18:04.652Z,3.53
2023-05-19T06:23:07.283Z,3.33
2023-05-19T06:28:09.881Z,3.77
2023-05-19T06:33:13.173Z,3.73
2023-05-19T06:38:15.576Z,4.77
2023-05-19T06:43:18.013Z,5.57
2023-05-19T06:48:31.850Z,3.53
2023-05-19T06:53:35.327Z,4.83
2023-05-19T06:58:42.437Z,5.40
2023-05-19T07:03:46.900Z,4.77
2023-05-19T07:08:50.869Z,3.37
2023-05-19T07:13:54.255Z,3.93
2023-05-19T07:19:03.066Z,7.53
2023-05-19T07:24:05.904Z,2.93
2023-05-19T07:29:08.812Z,4.50
2023-05-19T07:34:11.322Z,3.63
2023-05-19T07:39:13.808Z,2.90
2023-05-19T07:44:16.221Z,7.97
2023-05-19T07:49:18.630Z,7.17
2023-05-19T07:54:21.406Z,4.30
2023-05-19T07:59:24.932Z,4.93
2023-05-19T08:04:27.871Z,3.33
2023-05-19T08:09:30.343Z,4.50
2023-05-19T08:14:33.698Z,5.53
2023-05-19T08:19:36.548Z,4.63
2023-05-19T08:24:39.344Z,4.57
2023-05-19T08:29:41.676Z,7.30
2023-05-19T08:34:44.029Z,4.20
2023-05-19T08:39:46.394Z,5.50
2023-05-19T08:44:48.824Z,5.43
2023-05-19T08:49:55.552Z,2.83
2023-05-19T08:55:09.642Z,6.00
2023-05-19T09:00:13.340Z,17.50
2023-05-19T09:05:17.489Z,8.37
2023-05-19T09:10:19.980Z,14.10
2023-05-19T09:15:28.392Z,4.23
2023-05-19T09:20:31.706Z,5.33
2023-05-19T09:25:34.373Z,3.13
2023-05-19T09:30:36.907Z,4.87
2023-05-19T09:35:39.287Z,4.50
2023-05-19T09:40:41.689Z,2.60
2023-05-19T09:45:44.239Z,5.73
2023-05-19T09:50:48.556Z,5.30
2023-05-19T09:55:51.681Z,3.57
2023-05-19T10:00:57.134Z,7.10
2023-05-19T10:06:01.584Z,7.90
2023-05-19T10:11:05.071Z,4.27
2023-05-19T10:16:09.515Z,2.70
2023-05-19T10:21:13.635Z,3.13
2023-05-19T10:26:16.667Z,3.63
2023-05-19T10:31:21.920Z,2.73
2023-05-19T10:36:42.864Z,6.00
2023-05-19T10:42:12.625Z,4.20
2023-05-19T10:47:15.783Z,4.93
2023-05-19T10:52:23.335Z,3.00
2023-05-19T10:57:28.124Z,2.20
2023-05-19T11:02:41.095Z,2.80
2023-05-19T11:08:06.223Z,3.13
2023-05-19T11:13:20.014Z,3.57
2023-05-19T11:18:22.487Z,2.50
2023-05-19T11:23:26.591Z,6.47
2023-05-19T11:28:30.651Z,3.07
2023-05-19T11:33:33.117Z,2.73
2023-05-19T11:38:35.659Z,3.47
2023-05-19T11:43:38.023Z,2.47
2023-05-19T11:48:40.660Z,4.53
2023-05-19T11:53:44.692Z,6.83
2023-05-19T11:58:47.093Z,2.53
2023-05-19T12:03:50.090Z,5.67
2023-05-19T12:08:54.353Z,3.27
2023-05-19T12:13:59.239Z,4.27
2023-05-19T12:19:05.364Z,4.07
2023-05-19T12:24:08.574Z,4.20
2023-05-19T12:29:13.477Z,5.57
2023-05-19T12:34:16.207Z,2.63
2023-05-19T12:39:19.558Z,3.20
2023-05-19T12:44:24.957Z,3.20
2023-05-19T12:49:27.392Z,3.43
2023-05-19T12:54:35.982Z,4.50
2023-05-19T12:59:39.114Z,3.43
2023-05-19T13:04:41.711Z,3.50
2023-05-19T13:09:44.783Z,4.50
2023-05-19T13:14:47.314Z,3.63
2023-05-19T13:19:49.759Z,8.63
2023-05-19T13:24:53.855Z,2.93
2023-05-19T13:29:56.297Z,9.27
2023-05-19T13:34:58.856Z,4.00
2023-05-19T13:40:02.006Z,5.03
2023-05-19T13:45:04.892Z,2.90
2023-05-19T13:50:07.980Z,5.30
2023-05-19T13:55:10.405Z,5.33
2023-05-19T14:00:13.166Z,6.97
2023-05-19T14:05:15.593Z,2.53
2023-05-19T14:10:17.998Z,4.53
2023-05-19T14:15:20.593Z,5.27
2023-05-19T14:20:22.967Z,5.53
2023-05-19T14:25:25.637Z,4.20
2023-05-19T14:30:28.037Z,5.93
2023-05-19T14:35:30.699Z,2.67
2023-05-19T14:40:33.280Z,4.97
2023-05-19T14:45:36.065Z,5.47
2023-05-19T14:50:38.854Z,9.47
2023-05-19T14:55:41.233Z,10.13
2023-05-19T15:00:43.936Z,11.13
2023-05-19T15:05:46.349Z,8.50
2023-05-19T15:10:49.799Z,7.67
2023-05-19T15:16:08.273Z,4.20
2023-05-19T15:21:17.823Z,3.80
2023-05-19T15:26:20.498Z,4.73
2023-05-19T15:31:22.977Z,5.17
2023-05-19T15:36:25.544Z,4.73
2023-05-19T15:41:27.916Z,7.10
2023-05-19T15:46:30.528Z,9.93
2023-05-19T15:51:33.065Z,4.93
2023-05-19T15:56:35.504Z,6.13
2023-05-19T16:01:38.006Z,6.77
2023-05-19T16:06:40.415Z,8.37
2023-05-19T16:11:42.738Z,6.83
2023-05-19T16:16:45.117Z,4.80
2023-05-19T16:21:47.758Z,4.77
2023-05-19T16:26:53.903Z,4.80
2023-05-19T16:31:56.667Z,7.53
2023-05-19T16:36:59.175Z,8.03
2023-05-19T16:42:01.807Z,17.37
2023-05-19T16:47:04.385Z,11.10
2023-05-19T16:52:07.928Z,5.23
2023-05-19T16:57:10.306Z,10.40
2023-05-19T17:02:12.675Z,8.87
2023-05-19T17:07:15.743Z,6.13
2023-05-19T17:12:18.186Z,8.60
2023-05-19T17:17:20.505Z,5.37
2023-05-19T17:22:23.005Z,7.37
2023-05-19T17:27:25.722Z,7.63
2023-05-19T17:32:28.301Z,7.23
2023-05-19T17:37:30.869Z,8.70
2023-05-19T17:42:33.296Z,9.00
2023-05-19T17:47:35.801Z,6.27
2023-05-19T17:52:40.427Z,4.87
2023-05-19T17:57:45.884Z,3.97
2023-05-19T18:02:48.600Z,6.33
2023-05-19T18:07:51.752Z,5.03
2023-05-19T18:12:54.089Z,4.83
2023-05-19T18:17:56.518Z,8.70
2023-05-19T18:22:59.053Z,6.67
2023-05-19T18:28:01.770Z,10.30
2023-05-19T18:33:04.318Z,9.27
2023-05-19T18:38:06.809Z,5.47
2023-05-19T18:43:09.463Z,9.73
2023-05-19T18:48:12.177Z,8.43
2023-05-19T18:53:14.681Z,10.37
2023-05-19T18:58:18.607Z,6.93
2023-05-19T19:03:21.053Z,8.50
2023-05-19T19:08:23.837Z,6.37
2023-05-19T19:13:26.337Z,7.23
2023-05-19T19:18:28.787Z,10.03
2023-05-19T19:23:31.817Z,9.73
2023-05-19T19:28:34.662Z,7.20
2023-05-19T19:33:37.178Z,10.83
2023-05-19T19:38:39.756Z,9.47
2023-05-19T19:43:42.170Z,9.60
2023-05-19T19:48:44.737Z,9.97
2023-05-19T19:53:47.218Z,10.93
2023-05-19T19:58:49.706Z,8.40
2023-05-19T20:03:52.182Z,7.90
2023-05-19T20:08:54.747Z,11.47
2023-05-19T20:13:57.162Z,7.10
2023-05-19T20:18:59.613Z,7.13
2023-05-19T20:24:02.357Z,6.37
2023-05-19T20:29:05.287Z,8.27
2023-05-19T20:34:07.711Z,5.03
2023-05-19T20:39:10.383Z,9.33
2023-05-19T20:44:12.836Z,7.77
2023-05-19T20:49:15.208Z,5.97
2023-05-19T20:54:19.676Z,7.40
2023-05-19T20:59:22.130Z,10.87
2023-05-19T21:04:24.637Z,8.30
2023-05-19T21:09:27.137Z,7.37
2023-05-19T21:14:29.641Z,7.17
2023-05-19T21:19:32.213Z,9.53
2023-05-19T21:24:34.795Z,9.87
2023-05-19T21:29:37.675Z,8.43
2023-05-19T21:34:40.149Z,9.10
2023-05-19T21:39:42.584Z,8.60
2023-05-19T21:44:45.006Z,7.40
2023-05-19T21:49:47.335Z,8.00
2023-05-19T21:54:51.949Z,8.80
2023-05-19T21:59:54.304Z,6.37
2023-05-19T22:04:56.707Z,6.57
2023-05-19T22:09:59.166Z,10.33
2023-05-19T22:15:02.878Z,10.67
2023-05-19T22:20:06.959Z,10.13
2023-05-19T22:25:09.546Z,10.77
2023-05-19T22:30:12.408Z,7.17
2023-05-19T22:35:14.952Z,11.37
2023-05-19T22:40:18.851Z,8.50
2023-05-19T22:45:21.371Z,12.17
2023-05-19T22:50:23.852Z,10.27
2023-05-19T22:55:26.370Z,10.20
2023-05-19T23:00:28.882Z,11.37
2023-05-19T23:05:31.442Z,10.17
2023-05-19T23:10:34.010Z,9.97
2023-05-19T23:15:36.827Z,9.67
2023-05-19T23:20:39.630Z,11.60
2023-05-19T23:25:42.655Z,11.00
2023-05-19T23:30:45.382Z,9.40
2023-05-19T23:35:48.024Z,8.73
2023-05-19T23:41:30.483Z,10.80
2023-05-19T23:46:32.985Z,12.67
2023-05-19T23:51:35.609Z,12.67
2023-05-19T23:56:38.167Z,9.07
